Terminal Aerodrome Forecast
Issued by NWS Wilmington, OH

Home | Current Version | Previous Version | Text Only | Print | Product List | Glossary On
Versions: 1 2 3 4 5 6 7 8 9 10 11 12 13 14
412
FTUS41 KILN 251736
TAFDAY
TAF
KDAY 251736Z 2518/2618 19012G20KT P6SM OVC150
     FM260200 14006KT P6SM VCSH BKN130
     FM260700 15007KT 6SM -SHRA BR OVC090
     FM261000 16007KT 6SM -SHRA BR OVC050
     FM261400 17010KT 4SM -SHRA BR OVC015=

USA.gov is the U.S. government's official web portal to all federal, state and local government web resources and services.